Franklin, Louisiana
Current Conditions -  °F | °C
As of 8:55 AM on Saturday 01 Nov 2014 (Local Time) from KPTN Reporting Station
Clear Clear  
Wind Chill: 40°   Ceiling: Unl
Heat Index: 46°   Visibility: 10mi
Dew Point: 25°   Wind: 16mph
Humidity: 43%   Direction: 40°NE
Pressure: 30.4"   Gusts: 21mph
Location:  29.79°N, 91.5°W
Report Text: KPTN 011355Z AUTO 04014G18KT 10SM CLR 08/M04 A3040 RMK AO1
Loading
Personal Weather Stations






























Interactive Weather Map
Tropical Storm Tracking
New forecast layout! Learn more

10-Day Weather Forecast

Advertisements
Track Severe Weather on mobile